createdAt,value
2018-12-06T00:01:11.117Z,8.58
2018-12-06T00:03:42.747Z,4.87
2018-12-06T00:06:15.499Z,10.43
2018-12-06T00:08:46.837Z,5.90
2018-12-06T00:11:23.580Z,8.17
2018-12-06T00:13:56.907Z,7.55
2018-12-06T00:16:39.285Z,10.73
2018-12-06T00:19:11.005Z,6.23
2018-12-06T00:21:44.090Z,6.20
2018-12-06T00:24:17.829Z,6.60
2018-12-06T00:26:47.867Z,9.05
2018-12-06T00:29:23.146Z,7.15
2018-12-06T00:31:54.439Z,7.87
2018-12-06T00:34:28.530Z,9.33
2018-12-06T00:37:05.086Z,6.40
2018-12-06T00:39:38.087Z,5.63
2018-12-06T00:42:12.999Z,6.78
2018-12-06T00:44:46.078Z,5.20
2018-12-06T00:47:18.652Z,16.40
2018-12-06T00:50:08.487Z,9.40
2018-12-06T00:52:39.778Z,7.00
2018-12-06T00:55:11.560Z,9.70
2018-12-06T00:57:42.755Z,11.10
2018-12-06T01:00:12.379Z,6.30
2018-12-06T01:02:43.027Z,10.43
2018-12-06T01:05:15.626Z,6.90
2018-12-06T01:07:51.502Z,5.13
2018-12-06T01:10:26.459Z,8.35
2018-12-06T01:13:06.344Z,8.88
2018-12-06T01:15:40.430Z,7.20
2018-12-06T01:18:13.228Z,8.57
2018-12-06T01:20:51.000Z,8.93
2018-12-06T01:23:24.097Z,8.13
2018-12-06T01:25:58.045Z,8.50
2018-12-06T01:28:31.863Z,11.90
2018-12-06T01:31:04.438Z,6.60
2018-12-06T01:33:42.938Z,11.78
2018-12-06T01:36:19.236Z,6.03
2018-12-06T01:38:53.100Z,13.93
2018-12-06T01:41:25.006Z,6.55
2018-12-06T01:43:55.488Z,11.30
2018-12-06T01:46:28.523Z,6.92
2018-12-06T01:49:03.672Z,9.57
2018-12-06T01:51:35.001Z,9.33
2018-12-06T01:54:09.836Z,12.03
2018-12-06T01:56:47.152Z,11.07
2018-12-06T01:59:20.678Z,7.33
2018-12-06T02:01:52.555Z,9.20
2018-12-06T02:04:26.394Z,16.00
2018-12-06T02:06:57.232Z,8.40
2018-12-06T02:09:29.753Z,7.83
2018-12-06T02:12:00.101Z,8.60
2018-12-06T02:14:32.501Z,8.27
2018-12-06T02:17:06.968Z,10.45
2018-12-06T02:19:44.164Z,8.03
2018-12-06T02:22:27.325Z,8.28
2018-12-06T02:25:00.255Z,5.77
2018-12-06T02:27:34.894Z,7.62
2018-12-06T02:30:08.369Z,6.40
2018-12-06T02:32:44.498Z,6.57
2018-12-06T02:35:17.045Z,14.23
2018-12-06T02:37:46.713Z,5.90
2018-12-06T02:40:18.852Z,8.67
2018-12-06T02:42:48.789Z,7.87
2018-12-06T02:45:19.474Z,8.73
2018-12-06T02:47:50.378Z,18.60
2018-12-06T02:50:22.695Z,8.20
2018-12-06T02:52:52.495Z,10.43
2018-12-06T02:55:24.800Z,9.47
2018-12-06T02:57:57.473Z,7.43
2018-12-06T03:00:32.112Z,8.80
2018-12-06T03:03:02.577Z,6.75
2018-12-06T03:05:38.972Z,8.13
2018-12-06T03:08:11.887Z,10.40
2018-12-06T03:10:43.320Z,7.60
2018-12-06T03:15:52.895Z,11.70
2018-12-06T03:18:24.520Z,9.57
2018-12-06T03:20:55.670Z,11.73
2018-12-06T03:23:25.295Z,8.87
2018-12-06T03:25:56.502Z,8.60
2018-12-06T03:28:29.221Z,5.20
2018-12-06T03:30:59.483Z,10.33
2018-12-06T03:33:29.422Z,10.33
2018-12-06T03:36:01.129Z,7.87
2018-12-06T03:38:31.388Z,6.63
2018-12-06T03:41:04.839Z,12.87
2018-12-06T03:43:35.570Z,9.55
2018-12-06T03:46:08.228Z,10.47
2018-12-06T03:48:40.855Z,7.57
2018-12-06T03:51:14.474Z,11.97
2018-12-06T03:53:45.006Z,9.53
2018-12-06T03:56:20.342Z,11.45
2018-12-06T03:58:55.905Z,13.00
2018-12-06T04:01:30.495Z,12.97
2018-12-06T04:04:00.387Z,9.97
2018-12-06T04:06:32.283Z,13.40
2018-12-06T04:11:58.546Z,11.60
2018-12-06T04:14:29.625Z,9.63
2018-12-06T04:17:03.907Z,11.20
2018-12-06T04:19:41.931Z,12.88
2018-12-06T04:22:15.653Z,8.70
2018-12-06T04:27:41.849Z,10.40
2018-12-06T04:30:12.865Z,13.13
2018-12-06T04:32:45.264Z,14.27
2018-12-06T04:35:18.550Z,13.00
2018-12-06T04:37:51.799Z,11.90
2018-12-06T04:40:24.462Z,14.33
2018-12-06T04:43:02.323Z,11.60
2018-12-06T04:45:34.522Z,10.60
2018-12-06T04:48:07.819Z,11.70
2018-12-06T04:50:39.869Z,13.73
2018-12-06T04:53:10.642Z,15.53
2018-12-06T04:55:47.386Z,10.70
2018-12-06T04:58:19.735Z,11.67
2018-12-06T05:00:50.066Z,12.07
2018-12-06T05:03:21.308Z,12.20
2018-12-06T05:05:50.958Z,10.00
2018-12-06T05:08:20.142Z,11.60
2018-12-06T05:10:49.108Z,15.33
2018-12-06T05:13:18.079Z,17.70
2018-12-06T05:15:47.169Z,10.50
2018-12-06T05:18:16.377Z,11.68
2018-12-06T05:20:45.534Z,12.23
2018-12-06T05:23:14.540Z,11.60
2018-12-06T05:25:43.548Z,13.07
2018-12-06T05:28:12.874Z,11.77
2018-12-06T05:33:26.520Z,10.00
2018-12-06T05:35:55.511Z,13.85
2018-12-06T05:38:24.579Z,9.30
2018-12-06T05:45:53.666Z,13.90
2018-12-06T05:48:22.808Z,11.93
2018-12-06T05:50:51.766Z,11.00
2018-12-06T05:53:21.173Z,14.17
2018-12-06T05:55:52.108Z,12.80
2018-12-06T05:58:23.136Z,17.50
2018-12-06T06:00:53.227Z,10.00
2018-12-06T06:03:25.290Z,10.90
2018-12-06T06:05:57.335Z,9.43
2018-12-06T06:08:31.026Z,13.00
2018-12-06T06:11:02.400Z,9.60
2018-12-06T06:13:34.576Z,8.28
2018-12-06T06:16:13.237Z,17.55
2018-12-06T06:18:45.533Z,14.90
2018-12-06T06:21:17.922Z,9.80
2018-12-06T06:23:53.574Z,10.17
2018-12-06T06:26:26.167Z,11.63
2018-12-06T06:29:02.805Z,16.40
2018-12-06T06:31:38.694Z,12.43
2018-12-06T06:34:13.304Z,17.24
2018-12-06T06:36:46.330Z,14.25
2018-12-06T06:39:19.671Z,13.38
2018-12-06T06:41:51.369Z,14.33
2018-12-06T06:44:25.208Z,10.72
2018-12-06T06:46:58.921Z,15.22
2018-12-06T06:49:32.345Z,15.50
2018-12-06T06:52:08.869Z,12.90
2018-12-06T06:54:43.067Z,12.87
2018-12-06T06:57:16.005Z,17.02
2018-12-06T07:02:37.184Z,12.27
2018-12-06T07:05:13.670Z,20.30
2018-12-06T07:07:45.855Z,17.62
2018-12-06T07:10:18.356Z,15.80
2018-12-06T07:12:51.164Z,10.00
2018-12-06T07:15:26.381Z,13.30
2018-12-06T07:18:01.642Z,13.70
2018-12-06T07:20:43.006Z,13.20
2018-12-06T07:23:19.361Z,13.60
2018-12-06T07:25:51.697Z,17.23
2018-12-06T07:28:27.392Z,14.43
2018-12-06T07:31:03.222Z,12.77
2018-12-06T07:33:35.529Z,18.48
2018-12-06T07:36:11.803Z,20.15
2018-12-06T07:38:45.561Z,23.10
2018-12-06T07:41:20.820Z,17.10
2018-12-06T07:43:55.289Z,13.10
2018-12-06T07:46:30.539Z,18.77
2018-12-06T07:49:09.615Z,18.73
2018-12-06T07:51:40.908Z,18.57
2018-12-06T07:54:13.959Z,22.22
2018-12-06T07:56:49.952Z,22.47
2018-12-06T07:59:24.754Z,17.90
2018-12-06T08:02:04.143Z,20.95
2018-12-06T08:04:40.916Z,22.57
2018-12-06T08:07:16.003Z,22.87
2018-12-06T08:09:58.497Z,17.75
2018-12-06T08:12:37.319Z,18.27
2018-12-06T08:15:10.143Z,18.70
2018-12-06T08:17:46.195Z,18.80
2018-12-06T08:20:20.723Z,22.47
2018-12-06T08:22:55.106Z,20.17
2018-12-06T08:25:30.680Z,19.13
2018-12-06T08:28:08.428Z,19.80
2018-12-06T08:30:47.467Z,19.33
2018-12-06T08:33:21.998Z,17.55
2018-12-06T08:35:55.036Z,23.70
2018-12-06T08:38:31.074Z,17.80
2018-12-06T08:41:07.271Z,18.27
2018-12-06T08:43:45.717Z,20.40
2018-12-06T08:46:20.989Z,27.67
2018-12-06T08:49:02.841Z,27.20
2018-12-06T08:51:34.494Z,18.90
2018-12-06T08:54:12.338Z,19.90
2018-12-06T08:56:55.369Z,20.45
2018-12-06T08:59:30.764Z,24.20
2018-12-06T09:02:11.028Z,20.83
2018-12-06T09:04:45.641Z,19.30
2018-12-06T09:07:24.056Z,17.30
2018-12-06T09:10:02.113Z,21.30
2018-12-06T09:12:35.480Z,18.23
2018-12-06T09:18:07.632Z,24.87
2018-12-06T09:20:47.069Z,17.10
2018-12-06T09:23:23.981Z,15.87
2018-12-06T09:26:00.374Z,17.40
2018-12-06T09:28:39.263Z,19.62
2018-12-06T09:31:24.530Z,21.70
2018-12-06T09:34:13.828Z,18.17
2018-12-06T09:36:54.113Z,25.97
2018-12-06T09:39:27.286Z,19.60
2018-12-06T09:42:06.252Z,19.48
2018-12-06T09:44:39.685Z,17.80
2018-12-06T09:47:15.708Z,19.77
2018-12-06T09:52:41.098Z,15.53
2018-12-06T10:14:37.375Z,13.53
2018-12-06T10:17:16.387Z,18.70
2018-12-06T10:19:50.530Z,17.55
2018-12-06T10:22:22.202Z,14.65
2018-12-06T10:24:56.868Z,15.57
2018-12-06T10:27:29.213Z,14.67
2018-12-06T10:29:59.704Z,15.07
2018-12-06T10:32:31.039Z,14.73
2018-12-06T10:35:06.825Z,16.20
2018-12-06T10:37:40.165Z,12.40
2018-12-06T10:40:14.820Z,16.65
2018-12-06T10:42:51.341Z,18.50
2018-12-06T10:45:29.669Z,23.10
2018-12-06T10:48:10.136Z,9.93
2018-12-06T10:50:45.982Z,10.23
2018-12-06T10:53:25.697Z,12.10
2018-12-06T10:56:01.582Z,10.03
2018-12-06T10:58:43.015Z,14.00
2018-12-06T11:04:40.881Z,8.85
2018-12-06T11:07:14.277Z,10.70
2018-12-06T11:09:52.467Z,7.93
2018-12-06T11:12:30.476Z,10.87
2018-12-06T11:15:13.642Z,10.50
2018-12-06T11:17:50.434Z,7.27
2018-12-06T11:20:26.857Z,9.00
2018-12-06T11:25:47.890Z,11.87
2018-12-06T11:28:27.227Z,7.50
2018-12-06T11:31:03.049Z,8.27
2018-12-06T11:33:38.484Z,7.43
2018-12-06T11:36:17.413Z,9.10
2018-12-06T11:38:49.644Z,10.10
2018-12-06T11:41:23.211Z,9.40
2018-12-06T11:44:02.841Z,7.70
2018-12-06T11:46:40.181Z,12.77
2018-12-06T11:49:12.869Z,7.57
2018-12-06T11:51:51.882Z,10.60
2018-12-06T11:54:28.162Z,9.23
2018-12-06T11:57:04.879Z,10.38
2018-12-06T11:59:38.907Z,14.07
2018-12-06T12:02:15.496Z,8.93
2018-12-06T12:04:51.040Z,8.40
2018-12-06T12:07:25.191Z,10.83
2018-12-06T12:10:01.351Z,9.88
2018-12-06T12:12:33.253Z,12.03
2018-12-06T12:15:09.754Z,12.33
2018-12-06T12:17:54.870Z,10.93
2018-12-06T12:23:21.584Z,8.28
2018-12-06T12:25:55.481Z,12.17
2018-12-06T12:28:34.511Z,14.00
2018-12-06T12:31:10.460Z,11.67
2018-12-06T12:33:47.182Z,11.53
2018-12-06T12:36:20.611Z,11.17
2018-12-06T12:38:58.924Z,14.75
2018-12-06T12:44:51.659Z,13.00
2018-12-06T12:47:27.943Z,11.33
2018-12-06T12:50:02.333Z,16.60
2018-12-06T12:52:35.344Z,21.93
2018-12-06T12:55:09.581Z,14.03
2018-12-06T12:57:47.478Z,13.70
2018-12-06T13:03:13.805Z,16.03
2018-12-06T13:05:51.180Z,21.33
2018-12-06T13:08:24.710Z,17.73
2018-12-06T13:13:51.451Z,16.20
2018-12-06T13:16:24.695Z,14.83
2018-12-06T13:18:59.877Z,15.33
2018-12-06T13:21:35.736Z,15.97
2018-12-06T13:24:13.222Z,13.67
2018-12-06T13:29:30.993Z,17.33
2018-12-06T13:32:04.655Z,17.82
2018-12-06T13:34:41.790Z,16.10
2018-12-06T13:37:17.424Z,12.18
2018-12-06T13:39:51.369Z,14.70
2018-12-06T13:42:25.046Z,15.67
2018-12-06T13:45:00.288Z,17.23
2018-12-06T13:47:35.104Z,18.33
2018-12-06T13:50:07.350Z,19.50
2018-12-06T13:52:46.403Z,15.63
2018-12-06T13:55:18.418Z,13.33
2018-12-06T13:57:53.457Z,17.62
2018-12-06T14:00:27.878Z,17.23
2018-12-06T14:02:57.844Z,15.77
2018-12-06T14:05:37.700Z,16.70
2018-12-06T14:08:10.211Z,14.45
2018-12-06T14:10:43.799Z,19.17
2018-12-06T14:13:23.635Z,18.90
2018-12-06T14:15:53.697Z,10.23
2018-12-06T14:18:27.431Z,18.77
2018-12-06T14:21:03.823Z,14.10
2018-12-06T14:23:38.798Z,13.27
2018-12-06T14:26:15.138Z,15.80
2018-12-06T14:28:47.197Z,13.23
2018-12-06T14:31:19.264Z,14.33
2018-12-06T14:33:53.240Z,14.27
2018-12-06T14:36:26.565Z,14.75
2018-12-06T14:39:01.604Z,10.20
2018-12-06T14:41:37.849Z,16.80
2018-12-06T14:44:21.162Z,10.80
2018-12-06T14:46:56.354Z,12.85
2018-12-06T14:49:29.724Z,13.70
2018-12-06T14:52:02.564Z,17.27
2018-12-06T14:54:35.256Z,8.95
2018-12-06T14:57:06.513Z,13.13
2018-12-06T14:59:41.246Z,12.63
2018-12-06T15:02:15.140Z,9.55
2018-12-06T15:04:46.648Z,13.27
2018-12-06T15:07:23.162Z,12.70
2018-12-06T15:09:59.500Z,12.90
2018-12-06T15:12:37.464Z,11.50
2018-12-06T15:15:14.211Z,10.33
2018-12-06T15:17:48.375Z,12.07
2018-12-06T15:20:21.419Z,11.10
2018-12-06T15:22:53.836Z,12.47
2018-12-06T15:25:25.762Z,12.43
2018-12-06T15:27:59.043Z,10.00
2018-12-06T15:30:34.186Z,11.30
2018-12-06T15:33:09.856Z,17.17
2018-12-06T15:35:46.298Z,13.25
2018-12-06T15:38:20.165Z,13.77
2018-12-06T15:40:58.055Z,12.80
2018-12-06T15:46:35.460Z,17.60
2018-12-06T15:49:09.917Z,13.03
2018-12-06T15:54:46.348Z,14.98
2018-12-06T15:57:21.045Z,20.52
2018-12-06T16:00:00.043Z,14.97
2018-12-06T16:02:37.910Z,13.10
2018-12-06T16:21:30.822Z,26.47
2018-12-06T16:24:01.210Z,24.35
2018-12-06T16:29:35.720Z,15.13
2018-12-06T16:32:17.495Z,18.20
2018-12-06T16:34:48.151Z,18.03
2018-12-06T16:37:24.408Z,17.13
2018-12-06T16:39:57.357Z,17.07
2018-12-06T16:42:36.027Z,13.00
2018-12-06T16:48:04.692Z,13.50
2018-12-06T16:50:37.585Z,15.93
2018-12-06T16:53:35.960Z,18.90
2018-12-06T16:56:14.848Z,19.92
2018-12-06T16:58:53.555Z,18.80
2018-12-06T17:17:45.251Z,18.20
2018-12-06T17:23:08.743Z,20.33
2018-12-06T17:25:45.618Z,19.75
2018-12-06T17:31:08.745Z,17.30
2018-12-06T17:33:38.743Z,19.70
2018-12-06T17:36:22.125Z,15.90
2018-12-06T17:38:53.826Z,19.70
2018-12-06T17:41:27.028Z,19.77
2018-12-06T17:44:00.257Z,20.93
2018-12-06T17:46:39.005Z,18.73
2018-12-06T17:49:23.249Z,19.27
2018-12-06T17:51:58.633Z,17.37
2018-12-06T17:54:33.669Z,19.07
2018-12-06T17:57:10.787Z,23.60
2018-12-06T17:59:41.135Z,24.17
2018-12-06T18:04:59.693Z,24.67
2018-12-06T18:07:35.947Z,25.03
2018-12-06T18:10:13.546Z,23.62
2018-12-06T18:12:48.150Z,24.27
2018-12-06T18:15:24.464Z,27.75
2018-12-06T18:17:59.732Z,21.77
2018-12-06T18:23:07.218Z,29.00
2018-12-06T18:25:47.539Z,25.17
2018-12-06T18:31:19.114Z,30.17
2018-12-06T18:33:54.085Z,27.83
2018-12-06T18:36:29.617Z,26.00
2018-12-06T18:39:00.266Z,32.97
2018-12-06T18:41:35.480Z,28.42
2018-12-06T18:44:12.815Z,28.87
2018-12-06T18:46:45.812Z,30.20
2018-12-06T18:49:18.744Z,31.20
2018-12-06T18:51:52.742Z,29.47
2018-12-06T18:54:23.180Z,35.03
2018-12-06T18:56:54.509Z,21.97
2018-12-06T18:59:24.703Z,26.43
2018-12-06T19:05:02.522Z,28.07
2018-12-06T19:07:39.014Z,27.32
2018-12-06T19:10:07.646Z,38.43
2018-12-06T19:12:38.075Z,25.23
2018-12-06T19:15:09.665Z,30.90
2018-12-06T19:17:41.976Z,35.85
2018-12-06T19:20:16.184Z,25.47
2018-12-06T19:22:46.396Z,37.20
2018-12-06T19:25:18.414Z,27.93
2018-12-06T19:27:48.387Z,27.85
2018-12-06T19:30:19.314Z,26.90
2018-12-06T19:32:49.833Z,28.23
2018-12-06T19:35:20.796Z,30.30
2018-12-06T19:37:51.109Z,33.67
2018-12-06T19:40:23.693Z,28.73
2018-12-06T19:42:54.690Z,29.27
2018-12-06T19:45:25.844Z,24.98
2018-12-06T19:47:56.778Z,27.30
2018-12-06T19:50:26.890Z,24.73
2018-12-06T19:52:57.298Z,26.53
2018-12-06T19:55:35.065Z,27.48
2018-12-06T19:58:07.058Z,24.60
2018-12-06T20:00:37.769Z,20.43
2018-12-06T20:03:09.005Z,33.90
2018-12-06T20:05:41.443Z,23.77
2018-12-06T20:08:14.152Z,28.60
2018-12-06T20:10:44.653Z,23.83
2018-12-06T20:13:14.705Z,24.40
2018-12-06T20:18:33.421Z,21.07
2018-12-06T20:21:04.594Z,27.57
2018-12-06T20:23:41.210Z,20.80
2018-12-06T20:26:17.559Z,26.40
2018-12-06T20:28:54.861Z,29.63
2018-12-06T20:31:30.811Z,26.17
2018-12-06T20:34:12.491Z,23.37
2018-12-06T20:36:43.810Z,26.80
2018-12-06T20:39:13.886Z,22.83
2018-12-06T20:41:46.863Z,22.80
2018-12-06T20:44:19.053Z,22.83
2018-12-06T20:46:49.556Z,21.70
2018-12-06T20:49:31.645Z,24.60
2018-12-06T20:52:02.392Z,26.30
2018-12-06T20:54:35.043Z,16.90
2018-12-06T20:57:12.743Z,18.45
2018-12-06T20:59:45.542Z,20.32
2018-12-06T21:02:18.177Z,22.37
2018-12-06T21:04:50.247Z,20.23
2018-12-06T21:07:20.415Z,19.23
2018-12-06T21:09:52.212Z,20.00
2018-12-06T21:12:22.538Z,25.37
2018-12-06T21:14:55.020Z,20.25
2018-12-06T21:17:26.401Z,19.20
2018-12-06T21:20:00.199Z,16.93
2018-12-06T21:22:46.487Z,14.93
2018-12-06T21:25:24.279Z,29.10
2018-12-06T21:27:58.356Z,33.70
2018-12-06T21:30:30.671Z,20.20
2018-12-06T21:36:36.848Z,20.77
2018-12-06T21:39:09.135Z,21.30
2018-12-06T21:41:38.944Z,18.43
2018-12-06T21:44:09.026Z,15.30
2018-12-06T21:46:39.877Z,18.90
2018-12-06T21:49:10.707Z,16.50
2018-12-06T21:51:44.477Z,17.30
2018-12-06T21:54:20.047Z,17.50
2018-12-06T21:56:55.337Z,15.83
2018-12-06T21:59:26.409Z,13.70
2018-12-06T22:02:09.120Z,14.70
2018-12-06T22:04:40.513Z,14.77
2018-12-06T22:07:14.747Z,13.73
2018-12-06T22:09:46.921Z,18.70
2018-12-06T22:12:20.306Z,11.65
2018-12-06T22:14:53.777Z,18.80
2018-12-06T22:17:27.853Z,19.05
2018-12-06T22:20:03.024Z,14.27
2018-12-06T22:22:33.684Z,13.30
2018-12-06T22:25:07.366Z,14.07
2018-12-06T22:27:39.342Z,16.45
2018-12-06T22:30:17.438Z,18.60
2018-12-06T22:32:49.826Z,15.10
2018-12-06T22:35:22.935Z,20.40
2018-12-06T22:38:04.724Z,13.87
2018-12-06T22:43:14.899Z,14.38
2018-12-06T22:46:04.841Z,17.50
2018-12-06T22:48:35.335Z,16.12
2018-12-06T22:51:08.857Z,15.90
2018-12-06T22:53:39.181Z,12.80
2018-12-06T22:56:09.344Z,15.50
2018-12-06T22:58:46.862Z,17.37
2018-12-06T23:01:20.333Z,17.97
2018-12-06T23:03:51.564Z,22.60
2018-12-06T23:06:27.456Z,20.45
2018-12-06T23:09:05.613Z,22.77
2018-12-06T23:11:39.380Z,20.40
2018-12-06T23:14:10.444Z,17.37
2018-12-06T23:16:39.883Z,16.83
2018-12-06T23:19:16.862Z,19.83
2018-12-06T23:21:52.825Z,14.20
2018-12-06T23:24:27.533Z,18.13
2018-12-06T23:27:00.301Z,23.70
2018-12-06T23:29:34.121Z,17.90
2018-12-06T23:32:05.069Z,23.90
2018-12-06T23:34:43.430Z,19.67
2018-12-06T23:37:15.724Z,20.08
2018-12-06T23:39:45.773Z,18.40
2018-12-06T23:42:15.577Z,20.57
2018-12-06T23:44:48.544Z,22.22
2018-12-06T23:49:39.654Z,20.93
2018-12-06T23:52:11.306Z,18.70
2018-12-06T23:54:42.006Z,20.35
2018-12-06T23:57:13.393Z,17.82
2018-12-06T23:59:43.138Z,22.90
